sensor_id;sensor_type;location;lat;lon;timestamp;P1;durP1;ratioP1;P2;durP2;ratioP2
20336;SDS011;10326;53.660;10.200;2022-11-20T00:00:50;6.17;;;4.50;;
20336;SDS011;10326;53.660;10.200;2022-11-20T00:03:17;4.80;;;4.30;;
20336;SDS011;10326;53.660;10.200;2022-11-20T00:05:45;4.57;;;4.17;;
20336;SDS011;10326;53.660;10.200;2022-11-20T00:08:12;5.00;;;4.50;;
20336;SDS011;10326;53.660;10.200;2022-11-20T00:10:40;5.13;;;4.63;;
20336;SDS011;10326;53.660;10.200;2022-11-20T00:13:07;5.10;;;4.27;;
20336;SDS011;10326;53.660;10.200;2022-11-20T00:15:34;5.07;;;4.33;;
20336;SDS011;10326;53.660;10.200;2022-11-20T00:18:03;4.33;;;3.93;;
20336;SDS011;10326;53.660;10.200;2022-11-20T00:20:30;4.80;;;4.30;;
20336;SDS011;10326;53.660;10.200;2022-11-20T00:22:57;4.63;;;4.20;;
20336;SDS011;10326;53.660;10.200;2022-11-20T00:25:25;5.37;;;4.87;;
20336;SDS011;10326;53.660;10.200;2022-11-20T00:27:52;4.53;;;4.10;;
20336;SDS011;10326;53.660;10.200;2022-11-20T00:30:19;5.93;;;4.73;;
20336;SDS011;10326;53.660;10.200;2022-11-20T00:32:46;5.23;;;4.73;;
20336;SDS011;10326;53.660;10.200;2022-11-20T00:35:15;5.47;;;4.97;;
20336;SDS011;10326;53.660;10.200;2022-11-20T00:37:42;4.73;;;4.27;;
20336;SDS011;10326;53.660;10.200;2022-11-20T00:40:09;6.20;;;5.33;;
20336;SDS011;10326;53.660;10.200;2022-11-20T00:42:37;5.17;;;4.67;;
20336;SDS011;10326;53.660;10.200;2022-11-20T00:45:05;5.53;;;5.03;;
20336;SDS011;10326;53.660;10.200;2022-11-20T00:47:33;5.10;;;4.60;;
20336;SDS011;10326;53.660;10.200;2022-11-20T00:50:00;5.63;;;5.03;;
20336;SDS011;10326;53.660;10.200;2022-11-20T00:52:28;5.77;;;5.10;;
20336;SDS011;10326;53.660;10.200;2022-11-20T00:54:56;5.10;;;4.60;;
20336;SDS011;10326;53.660;10.200;2022-11-20T00:57:23;5.60;;;5.03;;
20336;SDS011;10326;53.660;10.200;2022-11-20T00:59:50;5.33;;;4.83;;
20336;SDS011;10326;53.660;10.200;2022-11-20T01:02:17;4.90;;;4.40;;
20336;SDS011;10326;53.660;10.200;2022-11-20T01:04:44;4.97;;;4.57;;
20336;SDS011;10326;53.660;10.200;2022-11-20T01:07:12;5.30;;;4.80;;
20336;SDS011;10326;53.660;10.200;2022-11-20T01:09:40;5.20;;;4.70;;
20336;SDS011;10326;53.660;10.200;2022-11-20T01:12:08;4.97;;;4.50;;
20336;SDS011;10326;53.660;10.200;2022-11-20T01:14:36;5.33;;;4.83;;
20336;SDS011;10326;53.660;10.200;2022-11-20T01:17:04;5.33;;;4.57;;
20336;SDS011;10326;53.660;10.200;2022-11-20T01:19:31;5.30;;;4.57;;
20336;SDS011;10326;53.660;10.200;2022-11-20T01:21:58;5.33;;;4.83;;
20336;SDS011;10326;53.660;10.200;2022-11-20T01:24:25;5.17;;;4.67;;
20336;SDS011;10326;53.660;10.200;2022-11-20T01:26:54;5.30;;;4.80;;
20336;SDS011;10326;53.660;10.200;2022-11-20T01:29:22;4.73;;;4.27;;
20336;SDS011;10326;53.660;10.200;2022-11-20T01:31:51;6.00;;;4.73;;
20336;SDS011;10326;53.660;10.200;2022-11-20T01:34:19;6.43;;;5.20;;
20336;SDS011;10326;53.660;10.200;2022-11-20T01:36:48;5.30;;;4.80;;
20336;SDS011;10326;53.660;10.200;2022-11-20T01:39:17;5.00;;;4.60;;
20336;SDS011;10326;53.660;10.200;2022-11-20T01:41:46;5.60;;;4.50;;
20336;SDS011;10326;53.660;10.200;2022-11-20T01:47:30;4.97;;;4.47;;
20336;SDS011;10326;53.660;10.200;2022-11-20T01:50:02;4.63;;;4.23;;
20336;SDS011;10326;53.660;10.200;2022-11-20T01:52:34;4.90;;;4.40;;
20336;SDS011;10326;53.660;10.200;2022-11-20T01:55:08;5.47;;;4.87;;
20336;SDS011;10326;53.660;10.200;2022-11-20T01:57:38;4.93;;;4.43;;
20336;SDS011;10326;53.660;10.200;2022-11-20T02:00:09;4.70;;;4.30;;
20336;SDS011;10326;53.660;10.200;2022-11-20T02:02:39;4.83;;;4.43;;
20336;SDS011;10326;53.660;10.200;2022-11-20T02:05:12;5.83;;;4.57;;
20336;SDS011;10326;53.660;10.200;2022-11-20T02:07:46;5.20;;;4.70;;
20336;SDS011;10326;53.660;10.200;2022-11-20T02:10:15;4.93;;;4.33;;
20336;SDS011;10326;53.660;10.200;2022-11-20T02:12:42;5.10;;;4.63;;
20336;SDS011;10326;53.660;10.200;2022-11-20T02:15:29;5.47;;;4.97;;
20336;SDS011;10326;53.660;10.200;2022-11-20T02:17:56;4.67;;;4.17;;
20336;SDS011;10326;53.660;10.200;2022-11-20T02:20:23;5.53;;;5.00;;
20336;SDS011;10326;53.660;10.200;2022-11-20T02:22:53;4.90;;;4.50;;
20336;SDS011;10326;53.660;10.200;2022-11-20T02:25:25;4.90;;;4.47;;
20336;SDS011;10326;53.660;10.200;2022-11-20T02:27:54;5.47;;;5.00;;
20336;SDS011;10326;53.660;10.200;2022-11-20T02:30:21;6.00;;;4.53;;
20336;SDS011;10326;53.660;10.200;2022-11-20T02:32:48;5.07;;;4.67;;
20336;SDS011;10326;53.660;10.200;2022-11-20T02:38:06;4.63;;;4.23;;
20336;SDS011;10326;53.660;10.200;2022-11-20T02:40:35;4.60;;;4.20;;
20336;SDS011;10326;53.660;10.200;2022-11-20T02:43:02;4.97;;;4.50;;
20336;SDS011;10326;53.660;10.200;2022-11-20T02:45:29;4.70;;;4.23;;
20336;SDS011;10326;53.660;10.200;2022-11-20T02:47:56;5.40;;;4.73;;
20336;SDS011;10326;53.660;10.200;2022-11-20T02:50:23;5.53;;;4.43;;
20336;SDS011;10326;53.660;10.200;2022-11-20T02:52:51;6.13;;;4.47;;
20336;SDS011;10326;53.660;10.200;2022-11-20T02:55:18;4.80;;;4.40;;
20336;SDS011;10326;53.660;10.200;2022-11-20T02:57:46;4.50;;;4.10;;
20336;SDS011;10326;53.660;10.200;2022-11-20T03:00:14;5.40;;;4.60;;
20336;SDS011;10326;53.660;10.200;2022-11-20T03:02:41;6.17;;;4.20;;
20336;SDS011;10326;53.660;10.200;2022-11-20T03:05:09;4.87;;;4.47;;
20336;SDS011;10326;53.660;10.200;2022-11-20T03:07:36;4.80;;;4.10;;
20336;SDS011;10326;53.660;10.200;2022-11-20T03:10:03;5.23;;;4.83;;
20336;SDS011;10326;53.660;10.200;2022-11-20T03:12:32;4.90;;;4.03;;
20336;SDS011;10326;53.660;10.200;2022-11-20T03:15:00;4.47;;;4.07;;
20336;SDS011;10326;53.660;10.200;2022-11-20T03:17:28;4.97;;;4.43;;
20336;SDS011;10326;53.660;10.200;2022-11-20T03:19:56;4.83;;;4.37;;
20336;SDS011;10326;53.660;10.200;2022-11-20T03:22:23;4.97;;;4.50;;
20336;SDS011;10326;53.660;10.200;2022-11-20T03:24:50;4.80;;;4.40;;
20336;SDS011;10326;53.660;10.200;2022-11-20T03:27:17;5.43;;;4.70;;
20336;SDS011;10326;53.660;10.200;2022-11-20T03:29:44;5.83;;;4.40;;
20336;SDS011;10326;53.660;10.200;2022-11-20T03:32:13;4.70;;;4.20;;
20336;SDS011;10326;53.660;10.200;2022-11-20T03:34:40;5.60;;;4.50;;
20336;SDS011;10326;53.660;10.200;2022-11-20T03:37:07;4.33;;;4.03;;
20336;SDS011;10326;53.660;10.200;2022-11-20T03:39:34;4.80;;;4.37;;
20336;SDS011;10326;53.660;10.200;2022-11-20T03:42:01;6.37;;;4.63;;
20336;SDS011;10326;53.660;10.200;2022-11-20T03:44:49;5.37;;;4.50;;
20336;SDS011;10326;53.660;10.200;2022-11-20T03:47:17;5.00;;;4.40;;
20336;SDS011;10326;53.660;10.200;2022-11-20T03:49:44;5.27;;;4.77;;
20336;SDS011;10326;53.660;10.200;2022-11-20T03:52:11;4.90;;;4.47;;
20336;SDS011;10326;53.660;10.200;2022-11-20T03:54:39;5.10;;;4.30;;
20336;SDS011;10326;53.660;10.200;2022-11-20T03:57:06;4.90;;;4.40;;
20336;SDS011;10326;53.660;10.200;2022-11-20T03:59:33;5.17;;;4.63;;
20336;SDS011;10326;53.660;10.200;2022-11-20T04:02:00;4.93;;;4.43;;
20336;SDS011;10326;53.660;10.200;2022-11-20T04:04:29;6.10;;;4.13;;
20336;SDS011;10326;53.660;10.200;2022-11-20T04:06:56;4.60;;;4.27;;
20336;SDS011;10326;53.660;10.200;2022-11-20T04:09:23;4.80;;;4.33;;
20336;SDS011;10326;53.660;10.200;2022-11-20T04:11:50;5.27;;;4.60;;
20336;SDS011;10326;53.660;10.200;2022-11-20T04:14:17;5.53;;;4.20;;
20336;SDS011;10326;53.660;10.200;2022-11-20T04:16:44;5.60;;;4.50;;
20336;SDS011;10326;53.660;10.200;2022-11-20T04:19:12;5.67;;;4.10;;
20336;SDS011;10326;53.660;10.200;2022-11-20T04:21:43;4.67;;;4.27;;
20336;SDS011;10326;53.660;10.200;2022-11-20T04:24:11;4.73;;;4.30;;
20336;SDS011;10326;53.660;10.200;2022-11-20T04:26:38;4.90;;;4.50;;
20336;SDS011;10326;53.660;10.200;2022-11-20T04:29:06;4.70;;;4.27;;
20336;SDS011;10326;53.660;10.200;2022-11-20T04:31:36;5.47;;;4.60;;
20336;SDS011;10326;53.660;10.200;2022-11-20T04:34:04;4.30;;;3.90;;
20336;SDS011;10326;53.660;10.200;2022-11-20T04:36:33;4.07;;;3.77;;
20336;SDS011;10326;53.660;10.200;2022-11-20T04:39:03;4.50;;;4.10;;
20336;SDS011;10326;53.660;10.200;2022-11-20T04:41:33;4.87;;;4.43;;
20336;SDS011;10326;53.660;10.200;2022-11-20T04:44:02;5.10;;;4.60;;
20336;SDS011;10326;53.660;10.200;2022-11-20T04:46:33;4.50;;;4.07;;
20336;SDS011;10326;53.660;10.200;2022-11-20T04:49:02;4.73;;;4.33;;
20336;SDS011;10326;53.660;10.200;2022-11-20T04:51:30;4.83;;;4.23;;
20336;SDS011;10326;53.660;10.200;2022-11-20T04:53:57;4.47;;;4.13;;
20336;SDS011;10326;53.660;10.200;2022-11-20T04:56:26;4.90;;;4.50;;
20336;SDS011;10326;53.660;10.200;2022-11-20T04:58:53;4.63;;;4.23;;
20336;SDS011;10326;53.660;10.200;2022-11-20T05:01:21;4.63;;;4.23;;
20336;SDS011;10326;53.660;10.200;2022-11-20T05:03:50;5.47;;;4.93;;
20336;SDS011;10326;53.660;10.200;2022-11-20T05:06:18;4.67;;;4.27;;
20336;SDS011;10326;53.660;10.200;2022-11-20T05:08:47;5.07;;;4.57;;
20336;SDS011;10326;53.660;10.200;2022-11-20T05:11:15;4.93;;;4.40;;
20336;SDS011;10326;53.660;10.200;2022-11-20T05:13:46;5.03;;;4.23;;
20336;SDS011;10326;53.660;10.200;2022-11-20T05:16:15;4.50;;;4.20;;
20336;SDS011;10326;53.660;10.200;2022-11-20T05:18:44;5.57;;;4.60;;
20336;SDS011;10326;53.660;10.200;2022-11-20T05:21:12;4.90;;;4.40;;
20336;SDS011;10326;53.660;10.200;2022-11-20T05:23:40;5.23;;;4.37;;
20336;SDS011;10326;53.660;10.200;2022-11-20T05:26:11;4.97;;;4.47;;
20336;SDS011;10326;53.660;10.200;2022-11-20T05:28:40;4.90;;;4.40;;
20336;SDS011;10326;53.660;10.200;2022-11-20T05:31:09;4.40;;;4.00;;
20336;SDS011;10326;53.660;10.200;2022-11-20T05:33:39;5.13;;;4.10;;
20336;SDS011;10326;53.660;10.200;2022-11-20T05:36:08;4.90;;;4.50;;
20336;SDS011;10326;53.660;10.200;2022-11-20T05:38:36;5.70;;;5.00;;
20336;SDS011;10326;53.660;10.200;2022-11-20T05:41:04;4.93;;;4.53;;
20336;SDS011;10326;53.660;10.200;2022-11-20T05:43:32;4.70;;;4.30;;
20336;SDS011;10326;53.660;10.200;2022-11-20T05:46:00;4.83;;;4.37;;
20336;SDS011;10326;53.660;10.200;2022-11-20T05:48:29;4.53;;;4.13;;
20336;SDS011;10326;53.660;10.200;2022-11-20T05:50:58;4.60;;;4.20;;
20336;SDS011;10326;53.660;10.200;2022-11-20T05:53:26;5.60;;;4.40;;
20336;SDS011;10326;53.660;10.200;2022-11-20T05:55:57;5.50;;;4.20;;
20336;SDS011;10326;53.660;10.200;2022-11-20T05:58:25;4.53;;;4.07;;
20336;SDS011;10326;53.660;10.200;2022-11-20T06:00:53;4.77;;;4.30;;
20336;SDS011;10326;53.660;10.200;2022-11-20T06:03:20;4.57;;;4.17;;
20336;SDS011;10326;53.660;10.200;2022-11-20T06:05:48;4.97;;;4.27;;
20336;SDS011;10326;53.660;10.200;2022-11-20T06:08:16;4.97;;;4.47;;
20336;SDS011;10326;53.660;10.200;2022-11-20T06:10:43;4.60;;;4.20;;
20336;SDS011;10326;53.660;10.200;2022-11-20T06:13:10;5.00;;;4.40;;
20336;SDS011;10326;53.660;10.200;2022-11-20T06:15:37;4.77;;;4.33;;
20336;SDS011;10326;53.660;10.200;2022-11-20T06:18:04;5.57;;;4.53;;
20336;SDS011;10326;53.660;10.200;2022-11-20T06:20:31;4.60;;;4.20;;
20336;SDS011;10326;53.660;10.200;2022-11-20T06:23:00;4.90;;;4.20;;
20336;SDS011;10326;53.660;10.200;2022-11-20T06:25:27;4.40;;;4.00;;
20336;SDS011;10326;53.660;10.200;2022-11-20T06:27:54;4.70;;;4.30;;
20336;SDS011;10326;53.660;10.200;2022-11-20T06:30:21;5.03;;;4.43;;
20336;SDS011;10326;53.660;10.200;2022-11-20T06:32:48;5.27;;;4.30;;
20336;SDS011;10326;53.660;10.200;2022-11-20T06:35:16;4.73;;;4.23;;
20336;SDS011;10326;53.660;10.200;2022-11-20T06:37:43;5.10;;;4.57;;
20336;SDS011;10326;53.660;10.200;2022-11-20T06:40:12;7.47;;;4.50;;
20336;SDS011;10326;53.660;10.200;2022-11-20T06:42:39;4.80;;;4.40;;
20336;SDS011;10326;53.660;10.200;2022-11-20T06:45:07;6.50;;;4.53;;
20336;SDS011;10326;53.660;10.200;2022-11-20T06:47:35;4.87;;;4.37;;
20336;SDS011;10326;53.660;10.200;2022-11-20T06:50:03;5.87;;;3.87;;
20336;SDS011;10326;53.660;10.200;2022-11-20T06:52:30;5.37;;;4.23;;
20336;SDS011;10326;53.660;10.200;2022-11-20T06:54:57;4.73;;;4.33;;
20336;SDS011;10326;53.660;10.200;2022-11-20T06:57:26;4.30;;;4.00;;
20336;SDS011;10326;53.660;10.200;2022-11-20T06:59:53;5.77;;;4.80;;
20336;SDS011;10326;53.660;10.200;2022-11-20T07:02:21;5.20;;;4.70;;
20336;SDS011;10326;53.660;10.200;2022-11-20T07:04:48;5.67;;;5.07;;
20336;SDS011;10326;53.660;10.200;2022-11-20T07:07:15;5.30;;;4.90;;
20336;SDS011;10326;53.660;10.200;2022-11-20T07:09:42;5.90;;;5.40;;
20336;SDS011;10326;53.660;10.200;2022-11-20T07:12:09;5.33;;;4.83;;
20336;SDS011;10326;53.660;10.200;2022-11-20T07:14:38;6.03;;;5.53;;
20336;SDS011;10326;53.660;10.200;2022-11-20T07:17:05;5.37;;;4.97;;
20336;SDS011;10326;53.660;10.200;2022-11-20T07:19:32;6.10;;;5.50;;
20336;SDS011;10326;53.660;10.200;2022-11-20T07:21:59;5.07;;;4.67;;
20336;SDS011;10326;53.660;10.200;2022-11-20T07:24:27;5.50;;;4.93;;
20336;SDS011;10326;53.660;10.200;2022-11-20T07:26:54;5.97;;;5.37;;
20336;SDS011;10326;53.660;10.200;2022-11-20T07:29:21;5.17;;;4.67;;
20336;SDS011;10326;53.660;10.200;2022-11-20T07:31:49;6.80;;;5.40;;
20336;SDS011;10326;53.660;10.200;2022-11-20T07:34:17;6.43;;;5.83;;
20336;SDS011;10326;53.660;10.200;2022-11-20T07:36:45;5.83;;;5.33;;
20336;SDS011;10326;53.660;10.200;2022-11-20T07:39:12;5.80;;;5.20;;
20336;SDS011;10326;53.660;10.200;2022-11-20T07:41:39;6.03;;;5.50;;
20336;SDS011;10326;53.660;10.200;2022-11-20T07:44:06;5.70;;;5.23;;
20336;SDS011;10326;53.660;10.200;2022-11-20T07:46:33;6.20;;;5.60;;
20336;SDS011;10326;53.660;10.200;2022-11-20T07:49:02;6.23;;;5.63;;
20336;SDS011;10326;53.660;10.200;2022-11-20T07:51:29;5.67;;;5.17;;
20336;SDS011;10326;53.660;10.200;2022-11-20T07:53:56;6.20;;;5.60;;
20336;SDS011;10326;53.660;10.200;2022-11-20T07:56:23;6.27;;;5.67;;
20336;SDS011;10326;53.660;10.200;2022-11-20T07:58:51;5.67;;;5.17;;
20336;SDS011;10326;53.660;10.200;2022-11-20T08:01:18;5.87;;;5.47;;
20336;SDS011;10326;53.660;10.200;2022-11-20T08:03:45;5.67;;;5.17;;
20336;SDS011;10326;53.660;10.200;2022-11-20T08:06:14;5.27;;;4.77;;
20336;SDS011;10326;53.660;10.200;2022-11-20T08:08:41;5.60;;;5.20;;
20336;SDS011;10326;53.660;10.200;2022-11-20T08:11:08;6.23;;;5.30;;
20336;SDS011;10326;53.660;10.200;2022-11-20T08:13:52;5.50;;;5.00;;
20336;SDS011;10326;53.660;10.200;2022-11-20T08:16:33;5.63;;;5.13;;
20336;SDS011;10326;53.660;10.200;2022-11-20T08:19:00;5.30;;;4.90;;
20336;SDS011;10326;53.660;10.200;2022-11-20T08:21:29;5.53;;;5.03;;
20336;SDS011;10326;53.660;10.200;2022-11-20T08:23:57;5.33;;;4.90;;
20336;SDS011;10326;53.660;10.200;2022-11-20T08:26:24;6.50;;;5.23;;
20336;SDS011;10326;53.660;10.200;2022-11-20T08:28:52;5.50;;;5.00;;
20336;SDS011;10326;53.660;10.200;2022-11-20T08:31:20;5.47;;;5.07;;
20336;SDS011;10326;53.660;10.200;2022-11-20T08:33:48;5.70;;;5.30;;
20336;SDS011;10326;53.660;10.200;2022-11-20T08:36:16;6.00;;;5.03;;
20336;SDS011;10326;53.660;10.200;2022-11-20T08:38:47;5.93;;;5.43;;
20336;SDS011;10326;53.660;10.200;2022-11-20T08:41:15;5.90;;;5.40;;
20336;SDS011;10326;53.660;10.200;2022-11-20T08:43:52;7.67;;;5.90;;
20336;SDS011;10326;53.660;10.200;2022-11-20T08:46:22;5.67;;;5.07;;
20336;SDS011;10326;53.660;10.200;2022-11-20T08:48:51;5.30;;;4.90;;
20336;SDS011;10326;53.660;10.200;2022-11-20T08:51:19;6.17;;;5.57;;
20336;SDS011;10326;53.660;10.200;2022-11-20T08:53:48;5.87;;;5.40;;
20336;SDS011;10326;53.660;10.200;2022-11-20T08:56:15;5.40;;;4.90;;
20336;SDS011;10326;53.660;10.200;2022-11-20T08:58:43;6.03;;;5.13;;
20336;SDS011;10326;53.660;10.200;2022-11-20T09:01:10;6.47;;;5.83;;
20336;SDS011;10326;53.660;10.200;2022-11-20T09:03:38;6.00;;;5.40;;
20336;SDS011;10326;53.660;10.200;2022-11-20T09:06:06;6.07;;;5.47;;
20336;SDS011;10326;53.660;10.200;2022-11-20T09:08:34;5.87;;;5.37;;
20336;SDS011;10326;53.660;10.200;2022-11-20T09:11:04;5.73;;;5.10;;
20336;SDS011;10326;53.660;10.200;2022-11-20T09:13:32;6.10;;;5.03;;
20336;SDS011;10326;53.660;10.200;2022-11-20T09:16:02;6.87;;;5.40;;
20336;SDS011;10326;53.660;10.200;2022-11-20T09:18:33;5.37;;;4.97;;
20336;SDS011;10326;53.660;10.200;2022-11-20T09:21:02;5.07;;;4.67;;
20336;SDS011;10326;53.660;10.200;2022-11-20T09:23:33;5.00;;;4.50;;
20336;SDS011;10326;53.660;10.200;2022-11-20T09:26:04;5.80;;;4.93;;
20336;SDS011;10326;53.660;10.200;2022-11-20T09:28:33;5.60;;;5.10;;
20336;SDS011;10326;53.660;10.200;2022-11-20T09:31:00;6.03;;;5.53;;
20336;SDS011;10326;53.660;10.200;2022-11-20T09:33:30;5.80;;;5.27;;
20336;SDS011;10326;53.660;10.200;2022-11-20T09:35:58;6.20;;;5.60;;
20336;SDS011;10326;53.660;10.200;2022-11-20T09:38:25;5.53;;;5.03;;
20336;SDS011;10326;53.660;10.200;2022-11-20T09:40:54;5.60;;;5.13;;
20336;SDS011;10326;53.660;10.200;2022-11-20T09:43:29;5.80;;;5.30;;
20336;SDS011;10326;53.660;10.200;2022-11-20T09:46:12;6.03;;;5.47;;
20336;SDS011;10326;53.660;10.200;2022-11-20T09:51:50;5.67;;;4.80;;
20336;SDS011;10326;53.660;10.200;2022-11-20T09:54:26;5.17;;;4.77;;
20336;SDS011;10326;53.660;10.200;2022-11-20T09:56:58;5.57;;;5.17;;
20336;SDS011;10326;53.660;10.200;2022-11-20T09:59:38;5.30;;;4.90;;
20336;SDS011;10326;53.660;10.200;2022-11-20T10:02:12;5.23;;;4.83;;
20336;SDS011;10326;53.660;10.200;2022-11-20T10:04:45;4.70;;;4.30;;
20336;SDS011;10326;53.660;10.200;2022-11-20T10:07:20;4.90;;;4.50;;
20336;SDS011;10326;53.660;10.200;2022-11-20T10:09:52;5.07;;;4.67;;
20336;SDS011;10326;53.660;10.200;2022-11-20T10:12:24;5.60;;;5.10;;
20336;SDS011;10326;53.660;10.200;2022-11-20T10:15:12;5.30;;;4.90;;
20336;SDS011;10326;53.660;10.200;2022-11-20T10:18:00;4.53;;;4.23;;
20336;SDS011;10326;53.660;10.200;2022-11-20T10:20:43;5.00;;;4.60;;
20336;SDS011;10326;53.660;10.200;2022-11-20T10:23:26;4.47;;;4.17;;
20336;SDS011;10326;53.660;10.200;2022-11-20T10:26:16;4.20;;;3.80;;
20336;SDS011;10326;53.660;10.200;2022-11-20T10:28:57;4.70;;;4.10;;
20336;SDS011;10326;53.660;10.200;2022-11-20T10:31:37;4.27;;;3.90;;
20336;SDS011;10326;53.660;10.200;2022-11-20T10:34:12;4.60;;;4.20;;
20336;SDS011;10326;53.660;10.200;2022-11-20T10:36:49;4.83;;;4.43;;
20336;SDS011;10326;53.660;10.200;2022-11-20T10:39:24;4.33;;;4.03;;
20336;SDS011;10326;53.660;10.200;2022-11-20T10:41:58;4.20;;;3.80;;
20336;SDS011;10326;53.660;10.200;2022-11-20T10:44:27;4.57;;;4.27;;
20336;SDS011;10326;53.660;10.200;2022-11-20T10:47:15;4.77;;;4.33;;
20336;SDS011;10326;53.660;10.200;2022-11-20T10:49:45;4.50;;;4.20;;
20336;SDS011;10326;53.660;10.200;2022-11-20T10:52:19;5.33;;;4.87;;
20336;SDS011;10326;53.660;10.200;2022-11-20T10:54:56;4.70;;;4.40;;
20336;SDS011;10326;53.660;10.200;2022-11-20T10:57:37;4.80;;;4.40;;
20336;SDS011;10326;53.660;10.200;2022-11-20T11:00:18;4.37;;;3.97;;
20336;SDS011;10326;53.660;10.200;2022-11-20T11:02:48;4.40;;;4.10;;
20336;SDS011;10326;53.660;10.200;2022-11-20T11:05:18;4.57;;;4.20;;
20336;SDS011;10326;53.660;10.200;2022-11-20T11:07:56;4.23;;;3.83;;
20336;SDS011;10326;53.660;10.200;2022-11-20T11:10:26;4.27;;;3.90;;
20336;SDS011;10326;53.660;10.200;2022-11-20T11:13:01;4.80;;;4.47;;
20336;SDS011;10326;53.660;10.200;2022-11-20T11:15:30;4.50;;;4.13;;
20336;SDS011;10326;53.660;10.200;2022-11-20T11:18:07;4.30;;;4.00;;
20336;SDS011;10326;53.660;10.200;2022-11-20T11:20:36;4.97;;;4.57;;
20336;SDS011;10326;53.660;10.200;2022-11-20T11:23:04;4.27;;;3.97;;
20336;SDS011;10326;53.660;10.200;2022-11-20T11:25:32;4.57;;;4.20;;
20336;SDS011;10326;53.660;10.200;2022-11-20T11:28:01;4.20;;;3.90;;
20336;SDS011;10326;53.660;10.200;2022-11-20T11:30:40;4.37;;;3.90;;
20336;SDS011;10326;53.660;10.200;2022-11-20T11:33:11;3.77;;;3.47;;
20336;SDS011;10326;53.660;10.200;2022-11-20T11:35:46;4.10;;;3.80;;
20336;SDS011;10326;53.660;10.200;2022-11-20T11:38:19;4.00;;;3.70;;
20336;SDS011;10326;53.660;10.200;2022-11-20T11:40:49;4.27;;;3.97;;
20336;SDS011;10326;53.660;10.200;2022-11-20T11:43:22;3.53;;;3.23;;
20336;SDS011;10326;53.660;10.200;2022-11-20T11:46:23;3.90;;;3.60;;
20336;SDS011;10326;53.660;10.200;2022-11-20T11:48:58;4.60;;;4.27;;
20336;SDS011;10326;53.660;10.200;2022-11-20T11:51:28;4.00;;;3.70;;
20336;SDS011;10326;53.660;10.200;2022-11-20T11:54:05;3.13;;;2.93;;
20336;SDS011;10326;53.660;10.200;2022-11-20T11:56:51;3.20;;;3.00;;
20336;SDS011;10326;53.660;10.200;2022-11-20T11:59:22;3.57;;;3.27;;
20336;SDS011;10326;53.660;10.200;2022-11-20T12:01:59;3.35;;;3.15;;
20336;SDS011;10326;53.660;10.200;2022-11-20T12:04:42;3.20;;;3.00;;
20336;SDS011;10326;53.660;10.200;2022-11-20T12:07:15;2.95;;;2.75;;
20336;SDS011;10326;53.660;10.200;2022-11-20T12:09:55;3.10;;;2.90;;
20336;SDS011;10326;53.660;10.200;2022-11-20T12:12:26;3.20;;;3.00;;
20336;SDS011;10326;53.660;10.200;2022-11-20T12:14:57;3.00;;;2.80;;
20336;SDS011;10326;53.660;10.200;2022-11-20T12:17:25;3.05;;;2.85;;
20336;SDS011;10326;53.660;10.200;2022-11-20T12:19:54;2.83;;;2.63;;
20336;SDS011;10326;53.660;10.200;2022-11-20T12:22:23;3.30;;;3.03;;
20336;SDS011;10326;53.660;10.200;2022-11-20T12:25:02;3.20;;;3.00;;
20336;SDS011;10326;53.660;10.200;2022-11-20T12:27:42;3.57;;;3.23;;
20336;SDS011;10326;53.660;10.200;2022-11-20T12:30:36;3.50;;;3.20;;
20336;SDS011;10326;53.660;10.200;2022-11-20T12:33:23;3.13;;;2.92;;
20336;SDS011;10326;53.660;10.200;2022-11-20T12:36:30;2.92;;;2.75;;
20336;SDS011;10326;53.660;10.200;2022-11-20T12:39:16;2.92;;;2.72;;
20336;SDS011;10326;53.660;10.200;2022-11-20T12:49:01;3.67;;;3.38;;
20336;SDS011;10326;53.660;10.200;2022-11-20T12:51:52;3.25;;;3.05;;
20336;SDS011;10326;53.660;10.200;2022-11-20T12:54:55;2.70;;;2.60;;
20336;SDS011;10326;53.660;10.200;2022-11-20T12:57:49;2.83;;;2.63;;
20336;SDS011;10326;53.660;10.200;2022-11-20T13:00:21;3.33;;;3.03;;
20336;SDS011;10326;53.660;10.200;2022-11-20T13:02:58;2.75;;;2.55;;
20336;SDS011;10326;53.660;10.200;2022-11-20T13:06:05;2.88;;;2.67;;
20336;SDS011;10326;53.660;10.200;2022-11-20T13:08:42;2.75;;;2.55;;
20336;SDS011;10326;53.660;10.200;2022-11-20T13:11:16;2.63;;;2.42;;
20336;SDS011;10326;53.660;10.200;2022-11-20T13:14:00;2.63;;;2.42;;
20336;SDS011;10326;53.660;10.200;2022-11-20T13:16:45;2.65;;;2.45;;
20336;SDS011;10326;53.660;10.200;2022-11-20T13:19:18;2.80;;;2.60;;
20336;SDS011;10326;53.660;10.200;2022-11-20T13:21:46;2.97;;;2.78;;
20336;SDS011;10326;53.660;10.200;2022-11-20T13:24:24;2.90;;;2.70;;
20336;SDS011;10326;53.660;10.200;2022-11-20T13:29:46;3.10;;;2.90;;
20336;SDS011;10326;53.660;10.200;2022-11-20T13:32:27;2.70;;;2.53;;
20336;SDS011;10326;53.660;10.200;2022-11-20T13:34:58;2.70;;;2.50;;
20336;SDS011;10326;53.660;10.200;2022-11-20T13:37:29;2.47;;;2.28;;
20336;SDS011;10326;53.660;10.200;2022-11-20T13:40:13;2.95;;;2.28;;
20336;SDS011;10326;53.660;10.200;2022-11-20T13:42:55;2.72;;;2.53;;
20336;SDS011;10326;53.660;10.200;2022-11-20T13:45:53;2.70;;;2.50;;
20336;SDS011;10326;53.660;10.200;2022-11-20T13:48:23;2.38;;;2.20;;
20336;SDS011;10326;53.660;10.200;2022-11-20T13:50:55;2.58;;;2.38;;
20336;SDS011;10326;53.660;10.200;2022-11-20T13:57:25;2.70;;;2.13;;
20336;SDS011;10326;53.660;10.200;2022-11-20T14:00:09;2.75;;;2.55;;
20336;SDS011;10326;53.660;10.200;2022-11-20T14:02:39;2.30;;;2.15;;
20336;SDS011;10326;53.660;10.200;2022-11-20T14:05:11;2.90;;;2.70;;
20336;SDS011;10326;53.660;10.200;2022-11-20T14:07:46;2.60;;;2.40;;
20336;SDS011;10326;53.660;10.200;2022-11-20T14:10:19;2.37;;;2.17;;
20336;SDS011;10326;53.660;10.200;2022-11-20T14:12:51;2.85;;;2.60;;
20336;SDS011;10326;53.660;10.200;2022-11-20T14:15:26;2.57;;;2.37;;
20336;SDS011;10326;53.660;10.200;2022-11-20T14:17:57;2.63;;;2.43;;
20336;SDS011;10326;53.660;10.200;2022-11-20T14:20:25;3.00;;;2.80;;
20336;SDS011;10326;53.660;10.200;2022-11-20T14:22:56;2.90;;;2.57;;
20336;SDS011;10326;53.660;10.200;2022-11-20T14:25:24;3.38;;;3.08;;
20336;SDS011;10326;53.660;10.200;2022-11-20T14:27:55;2.70;;;2.50;;
20336;SDS011;10326;53.660;10.200;2022-11-20T14:30:24;3.00;;;2.70;;
20336;SDS011;10326;53.660;10.200;2022-11-20T14:32:54;3.00;;;2.80;;
20336;SDS011;10326;53.660;10.200;2022-11-20T14:35:28;2.50;;;2.30;;
20336;SDS011;10326;53.660;10.200;2022-11-20T14:38:00;3.00;;;2.40;;
20336;SDS011;10326;53.660;10.200;2022-11-20T14:40:30;2.80;;;2.38;;
20336;SDS011;10326;53.660;10.200;2022-11-20T14:43:04;3.27;;;2.97;;
20336;SDS011;10326;53.660;10.200;2022-11-20T14:45:46;3.13;;;2.93;;
20336;SDS011;10326;53.660;10.200;2022-11-20T14:48:22;3.60;;;3.30;;
20336;SDS011;10326;53.660;10.200;2022-11-20T14:50:56;3.72;;;3.33;;
20336;SDS011;10326;53.660;10.200;2022-11-20T14:53:24;3.87;;;3.47;;
20336;SDS011;10326;53.660;10.200;2022-11-20T14:55:59;4.93;;;4.43;;
20336;SDS011;10326;53.660;10.200;2022-11-20T14:58:30;3.87;;;3.57;;
20336;SDS011;10326;53.660;10.200;2022-11-20T15:01:00;4.30;;;3.85;;
20336;SDS011;10326;53.660;10.200;2022-11-20T15:03:32;4.00;;;3.70;;
20336;SDS011;10326;53.660;10.200;2022-11-20T15:06:01;4.60;;;4.20;;
20336;SDS011;10326;53.660;10.200;2022-11-20T15:08:29;4.30;;;3.90;;
20336;SDS011;10326;53.660;10.200;2022-11-20T15:10:56;6.00;;;5.43;;
20336;SDS011;10326;53.660;10.200;2022-11-20T15:13:25;5.47;;;5.00;;
20336;SDS011;10326;53.660;10.200;2022-11-20T15:15:58;5.53;;;5.03;;
20336;SDS011;10326;53.660;10.200;2022-11-20T15:18:28;3.90;;;3.53;;